الصفحة الرئيسية
METAR-TAF:

METAR-TAF

مطار :

كوراساو, جزر الأنتيل الهولندية

دائرة عرض: 12-12N, خط طول: 068-58W, ارتفاع: 9 متر

مراقبة الطقس الحالي

تاريخ ووقت الإصدار 39 دقيقة قبل الساعة 04:00UTC
ريح 8 عقدة من الشرق, الاتجاه يتراوح بين الشمال الشرقي و الشرق/الجنوب الشرقي
درجة الحرارة 28°درجة مئوية
الرطوبة 84%
ضغط 1011 hPa
الرؤية 10 كم أو أكثر

METAR: TNCC 180400Z AUTO 08008KT 050V110 9999 NCD 28/25 Q1011

زمن: 00:39 (04:39 UTC)

توقعات

تاريخ ووقت الإصدار 7ساعات و 0 دقيقة قبل الساعة 21:39UTC
التوقعات صالحة من18 الساعة 00 UTC إلى 18 الساعة 24 UTC
ريح 11 عقدة من الشرق/الشمال الشرقي
الرؤية 10 كم أو أكثر
غيوم متفرقة على ارتفاع 2000 قدم
مؤقت
من 18 الساعة 00 UTC إلى 18 الساعة 24 UTC
غيوم مفككة على ارتفاع 1400 قدم
غيوم مفككة على ارتفاع 3500 قدم
نظرية الاحتمالات 40%
من 18 الساعة 06 UTC إلى 18 الساعة 18 UTC
ريح 15 عقدةمن اتجاهات متغيرة تتزايد حتى 25 عقدة
الرؤية: 3000 متر
غيوم متفرقة على ارتفاع 1000 قدم, مزنة ركامية.
غيوم مفككة على ارتفاع 1200 قدم
عاصفة رعدية, مطر

TAF: TNCC 172139Z 1800/1824 07011KT 9999 SCT020 TEMPO 1800/1824 BKN014 BKN035 PROB40 1806/1818 VRB15G25KT 3000 TSRA SCT010CB BKN012

أرصاد الطقس والتوقعات من أكثر من 4000 مطار (تقارير الطقس للمطار METAR والتنبؤ بالطقس بالمطارTAF).

المحطات المتاحة هي النقط الصفراء والحمراء على الخريطة.

حرك المؤشر فوق النقطة لمعرفة اسم المحطة.

ثم انقر لمعرفة أرصاد وتوقعات الطقس.

لتغيير الخارطة: اضغط على الأزرار الخضراء مع رمز الصليب الأسود للتكبير. على الزر الأخضر مع شرطة للتصغير، أو على الأسهم الخضراء للخرائط المجاورة.


METAR-TAF: